createdAt,value
2022-11-16T00:00:51.737Z,63.06
2022-11-16T00:02:58.600Z,63.24
2022-11-16T00:05:09.426Z,62.91
2022-11-16T00:07:17.092Z,63.14
2022-11-16T00:09:28.962Z,64.19
2022-11-16T00:11:36.577Z,63.50
2022-11-16T00:13:47.532Z,63.70
2022-11-16T00:15:59.161Z,64.25
2022-11-16T00:18:07.470Z,64.17
2022-11-16T00:20:15.427Z,63.62
2022-11-16T00:22:22.066Z,64.11
2022-11-16T00:24:28.757Z,64.14
2022-11-16T00:26:36.396Z,64.70
2022-11-16T00:28:43.334Z,64.59
2022-11-16T00:31:02.987Z,64.34
2022-11-16T00:33:16.458Z,64.66
2022-11-16T00:35:23.146Z,64.66
2022-11-16T00:37:29.980Z,64.62
2022-11-16T00:39:37.460Z,63.92
2022-11-16T00:41:44.986Z,64.30
2022-11-16T00:43:51.674Z,63.82
2022-11-16T00:46:03.243Z,64.12
2022-11-16T00:48:10.135Z,63.80
2022-11-16T00:50:16.874Z,63.64
2022-11-16T00:52:24.411Z,63.46
2022-11-16T00:54:31.297Z,63.71
2022-11-16T00:56:39.237Z,63.68
2022-11-16T00:58:47.461Z,63.34
2022-11-16T01:00:54.244Z,63.56
2022-11-16T01:03:03.681Z,63.58
2022-11-16T01:05:15.387Z,64.07
2022-11-16T01:07:22.024Z,64.08
2022-11-16T01:09:28.805Z,64.01
2022-11-16T01:11:51.862Z,63.47
2022-11-16T01:13:58.865Z,63.95
2022-11-16T01:16:08.868Z,63.78
2022-11-16T01:18:19.550Z,62.99
2022-11-16T01:20:31.103Z,63.86
2022-11-16T01:22:40.258Z,63.58
2022-11-16T01:24:49.475Z,63.85
2022-11-16T01:26:58.512Z,62.82
2022-11-16T01:29:09.573Z,63.47
2022-11-16T01:31:21.513Z,63.74
2022-11-16T01:33:34.114Z,63.97
2022-11-16T01:35:41.614Z,64.17
2022-11-16T01:37:49.563Z,63.76
2022-11-16T01:39:56.846Z,63.98
2022-11-16T01:42:03.814Z,63.48
2022-11-16T01:44:59.372Z,63.96
2022-11-16T01:47:14.921Z,63.21
2022-11-16T01:49:30.573Z,64.34
2022-11-16T01:51:39.827Z,64.40
2022-11-16T01:53:47.534Z,63.76
2022-11-16T01:55:56.400Z,63.69
2022-11-16T01:58:47.047Z,63.60
2022-11-16T02:01:03.081Z,64.01
2022-11-16T02:03:25.122Z,63.56
2022-11-16T02:05:58.529Z,63.45
2022-11-16T02:08:54.267Z,63.74
2022-11-16T02:11:36.348Z,64.11
2022-11-16T02:14:05.978Z,64.80
2022-11-16T02:16:33.544Z,64.49
2022-11-16T02:18:59.237Z,64.81
2022-11-16T02:21:36.516Z,65.70
2022-11-16T02:24:18.020Z,66.11
2022-11-16T02:27:00.674Z,66.11
2022-11-16T02:29:31.499Z,65.57
2022-11-16T02:31:48.381Z,66.55
2022-11-16T02:34:00.050Z,66.19
2022-11-16T02:36:17.637Z,66.18
2022-11-16T02:38:32.147Z,65.72
2022-11-16T02:40:48.698Z,66.17
2022-11-16T02:43:11.653Z,65.89
2022-11-16T02:45:29.288Z,65.61
2022-11-16T02:47:42.504Z,66.23
2022-11-16T02:49:59.415Z,66.31
2022-11-16T02:52:08.887Z,65.03
2022-11-16T02:54:21.281Z,65.09
2022-11-16T02:56:33.230Z,64.99
2022-11-16T02:58:41.468Z,64.85
2022-11-16T03:01:03.664Z,65.79
2022-11-16T03:03:31.252Z,65.01
2022-11-16T03:05:48.044Z,65.38
2022-11-16T03:08:11.465Z,65.19
2022-11-16T03:10:37.419Z,65.09
2022-11-16T03:12:46.476Z,64.62
2022-11-16T03:15:02.758Z,65.25
2022-11-16T03:17:24.964Z,65.34
2022-11-16T03:19:42.974Z,65.84
2022-11-16T03:21:57.364Z,65.78
2022-11-16T03:24:06.425Z,65.49
2022-11-16T03:26:23.670Z,65.97
2022-11-16T03:28:45.380Z,66.36
2022-11-16T03:31:03.301Z,65.45
2022-11-16T03:33:25.770Z,65.34
2022-11-16T03:35:41.783Z,65.77
2022-11-16T03:37:55.856Z,65.24
2022-11-16T03:40:07.965Z,65.69
2022-11-16T03:42:17.070Z,66.06
2022-11-16T03:44:25.574Z,66.04
2022-11-16T03:46:32.793Z,66.14
2022-11-16T03:48:43.865Z,66.35
2022-11-16T03:51:03.243Z,66.07
2022-11-16T03:53:10.077Z,66.16
2022-11-16T03:55:18.390Z,65.44
2022-11-16T03:57:26.317Z,65.61
2022-11-16T03:59:36.665Z,66.13
2022-11-16T04:01:45.063Z,65.22
2022-11-16T04:03:57.104Z,65.86
2022-11-16T04:06:19.661Z,65.50
2022-11-16T04:08:41.795Z,66.06
2022-11-16T04:11:05.239Z,65.53
2022-11-16T04:13:33.757Z,66.45
2022-11-16T04:15:56.378Z,66.07
2022-11-16T04:18:21.527Z,65.67
2022-11-16T04:20:46.753Z,66.55
2022-11-16T04:23:18.209Z,66.55
2022-11-16T04:25:35.044Z,66.46
2022-11-16T04:27:58.242Z,66.33
2022-11-16T04:30:07.748Z,66.11
2022-11-16T04:32:31.360Z,66.94
2022-11-16T04:34:54.052Z,66.50
2022-11-16T04:37:19.693Z,66.80
2022-11-16T04:39:28.671Z,67.61
2022-11-16T04:41:52.628Z,66.98
2022-11-16T04:44:00.663Z,66.90
2022-11-16T04:46:25.579Z,66.97
2022-11-16T04:48:32.849Z,67.17
2022-11-16T04:50:42.713Z,67.30
2022-11-16T04:52:52.997Z,66.52
2022-11-16T04:55:00.239Z,66.98
2022-11-16T04:57:09.324Z,66.10
2022-11-16T04:59:17.439Z,66.80
2022-11-16T05:01:44.713Z,66.02
2022-11-16T05:03:52.850Z,66.20
2022-11-16T05:06:00.321Z,66.07
2022-11-16T05:08:11.977Z,66.89
2022-11-16T05:10:19.524Z,66.73
2022-11-16T05:12:30.828Z,66.69
2022-11-16T05:14:40.534Z,66.46
2022-11-16T05:16:47.659Z,65.62
2022-11-16T05:19:07.420Z,65.79
2022-11-16T05:21:15.641Z,65.28
2022-11-16T05:23:41.445Z,65.96
2022-11-16T05:25:52.588Z,64.95
2022-11-16T05:27:59.274Z,65.70
2022-11-16T05:30:09.441Z,66.14
2022-11-16T05:32:17.166Z,66.13
2022-11-16T05:34:23.841Z,65.85
2022-11-16T05:36:30.744Z,65.61
2022-11-16T05:38:41.145Z,65.93
2022-11-16T05:40:47.835Z,66.03
2022-11-16T05:42:55.110Z,65.49
2022-11-16T05:45:03.363Z,66.53
2022-11-16T05:47:09.968Z,65.37
2022-11-16T05:49:17.994Z,65.88
2022-11-16T05:51:25.857Z,66.09
2022-11-16T05:53:34.144Z,66.48
2022-11-16T05:55:43.832Z,66.49
2022-11-16T05:57:51.777Z,65.93
2022-11-16T05:59:59.172Z,65.93
2022-11-16T06:02:08.297Z,66.77
2022-11-16T06:06:39.146Z,66.41
2022-11-16T06:08:46.606Z,66.24
2022-11-16T06:11:06.517Z,66.52
2022-11-16T06:13:15.621Z,65.70
2022-11-16T06:15:22.677Z,65.78
2022-11-16T06:17:30.165Z,65.66
2022-11-16T06:19:38.406Z,65.59
2022-11-16T06:21:45.282Z,66.15
2022-11-16T06:23:58.920Z,65.40
2022-11-16T06:26:10.912Z,65.42
2022-11-16T06:28:18.786Z,66.11
2022-11-16T06:30:27.753Z,65.89
2022-11-16T06:32:36.595Z,66.05
2022-11-16T06:34:45.709Z,66.30
2022-11-16T06:36:55.033Z,65.79
2022-11-16T06:39:03.930Z,65.50
2022-11-16T06:41:18.748Z,65.96
2022-11-16T06:43:30.561Z,65.76
2022-11-16T06:45:38.555Z,65.28
2022-11-16T06:47:46.693Z,65.16
2022-11-16T06:49:55.501Z,65.01
2022-11-16T06:52:06.338Z,64.99
2022-11-16T06:54:14.365Z,64.62
2022-11-16T06:56:26.187Z,64.89
2022-11-16T07:01:32.324Z,65.20
2022-11-16T07:03:44.412Z,66.34
2022-11-16T07:05:50.803Z,66.31
2022-11-16T07:07:59.169Z,66.07
2022-11-16T07:10:12.883Z,66.84
2022-11-16T07:12:20.312Z,66.68
2022-11-16T07:14:30.415Z,66.48
2022-11-16T07:16:45.568Z,65.67
2022-11-16T07:18:54.987Z,66.28
2022-11-16T07:21:03.892Z,66.12
2022-11-16T07:23:14.610Z,66.17
2022-11-16T07:25:25.733Z,67.36
2022-11-16T07:27:35.279Z,66.36
2022-11-16T07:29:41.590Z,66.71
2022-11-16T07:32:12.243Z,67.23
2022-11-16T07:34:38.688Z,66.70
2022-11-16T07:37:00.270Z,67.18
2022-11-16T07:39:12.512Z,67.31
2022-11-16T07:41:25.856Z,66.74
2022-11-16T07:43:53.616Z,67.64
2022-11-16T07:48:44.212Z,66.72
2022-11-16T07:51:46.995Z,66.85
2022-11-16T07:54:16.646Z,66.94
2022-11-16T07:56:23.435Z,67.57
2022-11-16T07:58:37.303Z,66.84
2022-11-16T08:00:44.529Z,67.48
2022-11-16T08:02:57.036Z,67.38
2022-11-16T08:05:18.107Z,67.44
2022-11-16T08:07:29.623Z,66.58
2022-11-16T08:09:40.960Z,66.85
2022-11-16T08:11:54.742Z,66.96
2022-11-16T08:14:05.796Z,66.86
2022-11-16T08:16:22.650Z,66.70
2022-11-16T08:18:39.400Z,66.14
2022-11-16T08:20:50.256Z,66.44
2022-11-16T08:22:57.365Z,66.94
2022-11-16T08:25:15.237Z,67.04
2022-11-16T08:27:26.607Z,67.07
2022-11-16T08:29:39.074Z,66.81
2022-11-16T08:31:48.967Z,66.72
2022-11-16T08:34:03.054Z,65.90
2022-11-16T08:36:24.990Z,66.48
2022-11-16T08:38:32.817Z,66.38
2022-11-16T08:40:42.649Z,65.79
2022-11-16T08:42:48.770Z,66.92
2022-11-16T08:44:55.105Z,66.35
2022-11-16T08:47:06.331Z,66.86
2022-11-16T08:49:23.044Z,66.48
2022-11-16T08:51:37.790Z,66.76
2022-11-16T08:53:49.938Z,67.00
2022-11-16T08:55:59.450Z,67.35
2022-11-16T08:58:09.945Z,66.81
2022-11-16T09:00:21.485Z,67.53
2022-11-16T09:02:32.703Z,68.38
2022-11-16T09:04:41.324Z,68.42
2022-11-16T09:06:49.753Z,67.92
2022-11-16T09:08:56.132Z,67.23
2022-11-16T09:11:04.067Z,68.09
2022-11-16T09:13:09.768Z,67.89
2022-11-16T09:15:15.171Z,68.14
2022-11-16T09:17:23.233Z,68.15
2022-11-16T09:19:28.934Z,68.37
2022-11-16T09:21:37.144Z,67.23
2022-11-16T09:23:46.147Z,68.28
2022-11-16T09:25:52.040Z,67.51
2022-11-16T09:27:58.551Z,67.94
2022-11-16T09:30:06.088Z,68.31
2022-11-16T09:32:11.741Z,69.02
2022-11-16T09:34:17.341Z,67.70
2022-11-16T09:36:24.018Z,67.78
2022-11-16T09:38:46.577Z,67.72
2022-11-16T09:40:59.405Z,68.62
2022-11-16T09:43:24.145Z,68.62
2022-11-16T09:45:42.708Z,68.12
2022-11-16T09:47:54.592Z,68.63
2022-11-16T09:50:08.371Z,68.87
2022-11-16T09:52:29.521Z,69.85
2022-11-16T09:54:44.268Z,69.61
2022-11-16T09:57:01.158Z,69.77
2022-11-16T09:59:23.377Z,69.79
2022-11-16T10:01:39.182Z,69.32
2022-11-16T10:03:51.677Z,70.53
2022-11-16T10:06:06.321Z,70.39
2022-11-16T10:08:24.483Z,70.39
2022-11-16T10:10:41.638Z,69.94
2022-11-16T10:13:07.135Z,70.45
2022-11-16T10:15:48.108Z,70.65
2022-11-16T10:18:27.234Z,70.34
2022-11-16T10:21:17.799Z,69.46
2022-11-16T10:23:45.189Z,69.52
2022-11-16T10:26:00.323Z,69.80
2022-11-16T10:28:41.564Z,70.83
2022-11-16T10:31:03.753Z,70.77
2022-11-16T10:33:21.707Z,71.03
2022-11-16T10:35:37.417Z,71.06
2022-11-16T10:37:51.383Z,71.16
2022-11-16T10:39:56.916Z,71.85
2022-11-16T10:42:13.469Z,71.47
2022-11-16T10:44:37.338Z,71.76
2022-11-16T10:46:59.180Z,71.67
2022-11-16T10:49:19.638Z,72.34
2022-11-16T10:51:26.723Z,72.41
2022-11-16T10:53:38.095Z,71.96
2022-11-16T10:55:44.031Z,71.82
2022-11-16T10:58:03.908Z,72.79
2022-11-16T11:00:44.324Z,72.84
2022-11-16T11:02:52.195Z,73.23
2022-11-16T11:05:23.173Z,73.60
2022-11-16T11:07:35.970Z,74.46
2022-11-16T11:09:43.541Z,74.04
2022-11-16T11:12:18.924Z,73.80
2022-11-16T11:14:24.499Z,74.37
2022-11-16T11:16:34.126Z,74.16
2022-11-16T11:18:39.789Z,73.89
2022-11-16T11:20:51.311Z,74.26
2022-11-16T11:23:03.220Z,73.88
2022-11-16T11:25:24.831Z,73.44
2022-11-16T11:27:37.695Z,73.59
2022-11-16T11:29:47.429Z,74.26
2022-11-16T11:32:03.482Z,74.52
2022-11-16T11:34:23.770Z,74.72
2022-11-16T11:36:38.753Z,74.77
2022-11-16T11:39:03.629Z,75.14
2022-11-16T11:41:22.549Z,74.98
2022-11-16T11:43:31.269Z,74.55
2022-11-16T11:45:48.656Z,73.98
2022-11-16T11:48:06.317Z,72.84
2022-11-16T11:50:21.033Z,72.63
2022-11-16T11:52:40.948Z,72.67
2022-11-16T11:54:50.683Z,71.94
2022-11-16T11:56:58.128Z,72.36
2022-11-16T11:59:06.956Z,73.17
2022-11-16T12:02:03.418Z,72.37
2022-11-16T12:05:12.421Z,72.16
2022-11-16T12:07:40.165Z,72.14
2022-11-16T12:09:58.244Z,72.63
2022-11-16T12:12:31.896Z,73.08
2022-11-16T12:15:06.393Z,73.03
2022-11-16T12:17:31.884Z,72.79
2022-11-16T12:20:11.120Z,72.52
2022-11-16T12:23:06.310Z,72.68
2022-11-16T12:25:28.367Z,72.73
2022-11-16T12:27:56.851Z,72.62
2022-11-16T12:30:15.804Z,72.70
2022-11-16T12:32:57.645Z,72.98
2022-11-16T12:35:43.561Z,72.95
2022-11-16T12:38:02.983Z,73.03
2022-11-16T12:40:40.995Z,72.83
2022-11-16T12:43:05.278Z,72.82
2022-11-16T12:45:53.680Z,72.94
2022-11-16T12:48:33.988Z,72.35
2022-11-16T12:51:03.129Z,73.09
2022-11-16T12:53:40.195Z,72.56
2022-11-16T12:56:06.416Z,72.21
2022-11-16T12:58:29.438Z,72.13
2022-11-16T13:00:59.874Z,72.30
2022-11-16T13:03:24.173Z,72.45
2022-11-16T13:05:56.803Z,72.84
2022-11-16T13:08:14.405Z,72.61
2022-11-16T13:10:28.229Z,72.86
2022-11-16T13:12:36.452Z,72.88
2022-11-16T13:14:47.854Z,72.95
2022-11-16T13:16:56.885Z,73.02
2022-11-16T13:19:08.774Z,72.64
2022-11-16T13:21:34.570Z,72.73
2022-11-16T13:24:03.256Z,72.61
2022-11-16T13:26:23.070Z,73.19
2022-11-16T13:28:40.799Z,73.38
2022-11-16T13:31:06.312Z,73.02
2022-11-16T13:33:35.875Z,72.76
2022-11-16T13:35:42.413Z,72.35
2022-11-16T13:37:53.763Z,72.26
2022-11-16T13:40:29.611Z,72.44
2022-11-16T13:42:42.139Z,72.57
2022-11-16T13:44:51.628Z,72.83
2022-11-16T13:47:06.761Z,72.84
2022-11-16T13:49:27.878Z,72.60
2022-11-16T13:51:35.057Z,73.02
2022-11-16T13:56:28.319Z,72.28
2022-11-16T13:58:40.720Z,72.66
2022-11-16T14:01:07.798Z,72.13
2022-11-16T14:03:39.972Z,71.86
2022-11-16T14:05:50.722Z,71.54
2022-11-16T14:07:56.626Z,71.96
2022-11-16T14:10:08.669Z,71.86
2022-11-16T14:12:53.496Z,72.07
2022-11-16T14:15:17.603Z,71.51
2022-11-16T14:17:52.845Z,71.89
2022-11-16T14:19:58.996Z,71.85
2022-11-16T14:22:20.107Z,71.18
2022-11-16T14:24:41.115Z,70.96
2022-11-16T14:27:13.456Z,70.47
2022-11-16T14:29:54.787Z,70.28
2022-11-16T14:32:06.972Z,70.27
2022-11-16T14:34:22.267Z,70.50
2022-11-16T14:36:46.315Z,70.01
2022-11-16T14:38:52.889Z,70.43
2022-11-16T14:41:03.091Z,70.29
2022-11-16T14:43:25.070Z,70.25
2022-11-16T14:45:37.866Z,70.75
2022-11-16T14:47:43.694Z,70.23
2022-11-16T14:49:51.698Z,70.04
2022-11-16T14:52:05.743Z,70.42
2022-11-16T14:54:31.649Z,70.65
2022-11-16T14:56:37.723Z,70.68
2022-11-16T14:58:56.766Z,70.92
2022-11-16T15:01:06.316Z,70.78
2022-11-16T15:03:15.882Z,71.23
2022-11-16T15:05:26.903Z,71.89
2022-11-16T15:07:35.199Z,71.85
2022-11-16T15:09:45.103Z,71.76
2022-11-16T15:12:10.123Z,71.85
2022-11-16T15:14:24.712Z,71.57
2022-11-16T15:16:30.685Z,71.59
2022-11-16T15:18:37.679Z,71.17
2022-11-16T15:20:55.054Z,71.10
2022-11-16T15:23:03.459Z,71.22
2022-11-16T15:25:29.564Z,71.07
2022-11-16T15:27:41.638Z,71.05
2022-11-16T15:29:51.784Z,70.96
2022-11-16T15:31:58.711Z,70.42
2022-11-16T15:34:06.075Z,70.30
2022-11-16T15:36:29.513Z,70.90
2022-11-16T15:38:38.743Z,70.41
2022-11-16T15:40:51.758Z,70.62
2022-11-16T15:42:58.723Z,70.32
2022-11-16T15:45:27.419Z,70.85
2022-11-16T15:47:34.349Z,70.22
2022-11-16T15:49:44.558Z,70.62
2022-11-16T15:51:51.357Z,70.45
2022-11-16T15:54:14.794Z,70.70
2022-11-16T15:56:32.045Z,70.58
2022-11-16T15:58:43.696Z,70.53
2022-11-16T16:00:53.435Z,70.40
2022-11-16T16:03:09.319Z,70.59
2022-11-16T16:05:24.192Z,70.17
2022-11-16T16:07:45.550Z,70.47
2022-11-16T16:09:51.334Z,70.37
2022-11-16T16:12:18.280Z,70.53
2022-11-16T16:14:33.619Z,70.69
2022-11-16T16:16:43.291Z,70.98
2022-11-16T16:18:50.183Z,71.21
2022-11-16T16:20:55.939Z,70.65
2022-11-16T16:23:17.043Z,71.09
2022-11-16T16:25:33.567Z,71.09
2022-11-16T16:27:43.718Z,71.69
2022-11-16T16:29:51.251Z,71.44
2022-11-16T16:32:00.657Z,71.58
2022-11-16T16:34:14.892Z,71.81
2022-11-16T16:36:20.768Z,72.01
2022-11-16T16:38:27.334Z,71.50
2022-11-16T16:40:33.484Z,71.70
2022-11-16T16:42:39.447Z,71.95
2022-11-16T16:44:48.025Z,71.96
2022-11-16T16:46:53.555Z,71.60
2022-11-16T16:49:03.055Z,71.90
2022-11-16T16:51:09.701Z,71.84
2022-11-16T16:53:17.157Z,71.98
2022-11-16T16:55:23.041Z,71.62
2022-11-16T16:57:29.697Z,72.09
2022-11-16T16:59:36.508Z,71.63
2022-11-16T17:01:42.545Z,70.74
2022-11-16T17:03:50.642Z,71.60
2022-11-16T17:06:04.819Z,70.92
2022-11-16T17:08:11.082Z,71.24
2022-11-16T17:10:17.555Z,71.29
2022-11-16T17:12:23.132Z,71.06
2022-11-16T17:14:28.778Z,71.70
2022-11-16T17:16:35.770Z,71.37
2022-11-16T17:18:41.518Z,71.80
2022-11-16T17:20:47.210Z,71.44
2022-11-16T17:22:56.554Z,71.03
2022-11-16T17:25:03.113Z,71.41
2022-11-16T17:27:09.160Z,71.42
2022-11-16T17:29:15.764Z,71.35
2022-11-16T17:31:21.432Z,71.06
2022-11-16T17:33:27.005Z,70.98
2022-11-16T17:35:33.476Z,71.17
2022-11-16T17:37:39.364Z,71.40
2022-11-16T17:39:47.721Z,71.49
2022-11-16T17:41:54.804Z,71.45
2022-11-16T17:44:00.352Z,71.73
2022-11-16T17:46:10.720Z,71.56
2022-11-16T17:48:17.241Z,72.12
2022-11-16T17:50:22.961Z,71.48
2022-11-16T17:52:29.009Z,71.60
2022-11-16T17:54:35.866Z,71.81
2022-11-16T17:56:44.655Z,72.04
2022-11-16T17:58:52.520Z,71.38
2022-11-16T18:00:59.700Z,71.31
2022-11-16T18:03:06.947Z,70.75
2022-11-16T18:05:13.037Z,71.44
2022-11-16T18:07:19.829Z,71.75
2022-11-16T18:09:25.636Z,71.11
2022-11-16T18:11:32.005Z,71.84
2022-11-16T18:13:42.313Z,71.58
2022-11-16T18:15:48.109Z,71.26
2022-11-16T18:17:53.849Z,71.33
2022-11-16T18:20:00.553Z,70.84
2022-11-16T18:22:07.909Z,70.81
2022-11-16T18:24:14.359Z,70.98
2022-11-16T18:26:25.165Z,71.20
2022-11-16T18:28:30.815Z,70.91
2022-11-16T18:30:39.306Z,70.47
2022-11-16T18:32:45.768Z,69.90
2022-11-16T18:34:51.426Z,70.67
2022-11-16T18:36:57.078Z,70.23
2022-11-16T18:39:03.739Z,70.05
2022-11-16T18:41:19.962Z,70.22
2022-11-16T18:43:25.624Z,70.20
2022-11-16T18:45:32.141Z,69.70
2022-11-16T18:47:40.800Z,70.90
2022-11-16T18:49:46.777Z,70.23
2022-11-16T18:51:53.550Z,70.55
2022-11-16T18:53:59.756Z,70.83
2022-11-16T18:56:08.514Z,70.96
2022-11-16T18:58:43.494Z,70.76
2022-11-16T19:00:40.998Z,70.72
2022-11-16T19:02:49.537Z,70.36
2022-11-16T19:04:56.078Z,70.79
2022-11-16T19:07:03.169Z,70.39
2022-11-16T19:09:10.053Z,70.87
2022-11-16T19:11:19.316Z,69.48
2022-11-16T19:13:25.791Z,70.70
2022-11-16T19:15:31.249Z,70.72
2022-11-16T19:17:53.383Z,70.77
2022-11-16T19:20:06.464Z,70.11
2022-11-16T19:22:12.222Z,70.96
2022-11-16T19:24:18.711Z,70.88
2022-11-16T19:26:27.033Z,71.18
2022-11-16T19:28:32.689Z,70.21
2022-11-16T19:30:39.623Z,71.29
2022-11-16T19:32:45.241Z,70.29
2022-11-16T19:34:51.021Z,70.52
2022-11-16T19:37:00.627Z,70.91
2022-11-16T19:39:09.349Z,70.80
2022-11-16T19:41:20.452Z,70.53
2022-11-16T19:43:27.181Z,71.03
2022-11-16T19:45:33.091Z,70.79
2022-11-16T19:47:39.529Z,70.38
2022-11-16T19:49:46.439Z,70.35
2022-11-16T19:51:52.293Z,71.60
2022-11-16T19:54:03.265Z,70.66
2022-11-16T19:56:14.264Z,70.56
2022-11-16T19:58:19.900Z,70.07
2022-11-16T20:00:25.952Z,70.86
2022-11-16T20:02:32.657Z,71.29
2022-11-16T20:04:38.510Z,70.00
2022-11-16T20:06:44.751Z,71.31
2022-11-16T20:08:53.586Z,69.57
2022-11-16T20:11:03.080Z,69.79
2022-11-16T20:13:08.909Z,70.81
2022-11-16T20:15:15.570Z,69.89
2022-11-16T20:17:21.338Z,71.10
2022-11-16T20:19:26.983Z,70.96
2022-11-16T20:21:36.433Z,71.27
2022-11-16T20:23:42.036Z,71.39
2022-11-16T20:25:47.663Z,70.41
2022-11-16T20:27:57.075Z,70.46
2022-11-16T20:30:09.088Z,70.18
2022-11-16T20:32:15.356Z,71.15
2022-11-16T20:34:22.492Z,70.83
2022-11-16T20:36:31.918Z,71.07
2022-11-16T20:38:39.387Z,70.68
2022-11-16T20:40:46.096Z,70.83
2022-11-16T20:42:54.643Z,71.68
2022-11-16T20:45:03.943Z,70.12
2022-11-16T20:47:10.704Z,70.14
2022-11-16T20:49:16.789Z,71.52
2022-11-16T20:51:24.135Z,71.25
2022-11-16T20:53:30.953Z,70.91
2022-11-16T20:55:36.553Z,70.18
2022-11-16T20:57:43.474Z,70.28
2022-11-16T20:59:50.169Z,71.09
2022-11-16T21:01:58.941Z,70.94
2022-11-16T21:04:08.709Z,70.55
2022-11-16T21:06:16.807Z,70.54
2022-11-16T21:08:23.541Z,70.64
2022-11-16T21:10:31.280Z,69.97
2022-11-16T21:12:53.867Z,70.78
2022-11-16T21:14:59.710Z,70.03
2022-11-16T21:17:10.027Z,70.96
2022-11-16T21:19:17.313Z,70.59
2022-11-16T21:21:23.025Z,70.68
2022-11-16T21:23:29.526Z,70.36
2022-11-16T21:25:36.344Z,71.10
2022-11-16T21:27:42.159Z,70.07
2022-11-16T21:29:48.029Z,70.59
2022-11-16T21:31:54.596Z,69.91
2022-11-16T21:34:06.046Z,70.10
2022-11-16T21:36:15.661Z,70.90
2022-11-16T21:38:22.929Z,71.29
2022-11-16T21:40:28.716Z,70.13
2022-11-16T21:42:34.367Z,71.04
2022-11-16T21:44:44.886Z,71.01
2022-11-16T21:46:50.645Z,71.21
2022-11-16T21:48:58.116Z,70.51
2022-11-16T21:51:10.344Z,70.49
2022-11-16T21:53:17.475Z,71.37
2022-11-16T21:55:23.239Z,70.86
2022-11-16T21:57:29.765Z,70.44
2022-11-16T21:59:35.511Z,70.47
2022-11-16T22:01:53.500Z,70.87
2022-11-16T22:04:15.883Z,71.34
2022-11-16T22:06:39.946Z,70.36
2022-11-16T22:08:46.460Z,70.11
2022-11-16T22:10:53.949Z,70.67
2022-11-16T22:12:59.646Z,69.98
2022-11-16T22:15:09.662Z,70.22
2022-11-16T22:17:16.184Z,70.16
2022-11-16T22:19:21.790Z,70.26
2022-11-16T22:21:30.414Z,69.89
2022-11-16T22:23:38.643Z,70.45
2022-11-16T22:25:45.103Z,69.94
2022-11-16T22:28:19.290Z,70.23
2022-11-16T22:30:19.544Z,71.25
2022-11-16T22:32:25.328Z,69.98
2022-11-16T22:34:31.014Z,71.15
2022-11-16T22:36:40.671Z,69.90
2022-11-16T22:38:46.398Z,70.87
2022-11-16T22:40:54.676Z,71.03
2022-11-16T22:43:03.352Z,70.69
2022-11-16T22:45:10.274Z,70.77
2022-11-16T22:47:15.955Z,69.97
2022-11-16T22:49:22.515Z,69.29
2022-11-16T22:51:31.401Z,69.08
2022-11-16T22:53:39.783Z,69.10
2022-11-16T22:56:08.373Z,69.95
2022-11-16T22:58:16.810Z,69.50
2022-11-16T23:00:23.736Z,68.64
2022-11-16T23:02:33.134Z,69.15
2022-11-16T23:04:38.736Z,68.63
2022-11-16T23:06:44.289Z,69.90
2022-11-16T23:08:54.172Z,69.68
2022-11-16T23:11:22.960Z,68.48
2022-11-16T23:13:44.482Z,69.81
2022-11-16T23:15:53.636Z,69.43
2022-11-16T23:17:59.297Z,69.03
2022-11-16T23:20:22.779Z,69.84
2022-11-16T23:22:45.084Z,69.84
2022-11-16T23:25:09.487Z,69.24
2022-11-16T23:27:33.419Z,69.33
2022-11-16T23:29:40.033Z,69.41
2022-11-16T23:31:45.614Z,69.19
2022-11-16T23:33:51.162Z,69.87
2022-11-16T23:35:57.710Z,69.89
2022-11-16T23:38:06.930Z,69.59
2022-11-16T23:40:16.217Z,70.80
2022-11-16T23:42:38.486Z,69.69
2022-11-16T23:44:45.134Z,69.95
2022-11-16T23:46:50.670Z,70.03
2022-11-16T23:48:57.183Z,70.77
2022-11-16T23:51:04.092Z,69.80
2022-11-16T23:53:12.223Z,70.23
2022-11-16T23:55:23.336Z,70.40
2022-11-16T23:57:29.047Z,69.72
2022-11-16T23:59:34.796Z,69.87
